• Join FlightAware (Why Join?)
  • Login
  • US Flag 
01:54AM EDT


 

Airport Tracker/Info


-or-


 

Live Flight TrackerFlight Track Log ✈ SKW6454 ✈ 10-May-2013 ✈ KSFO - KMCI

Flight Track Log - Related Links

Times and Time Zones

All times are in EDT time to prevent confusion due to time zone crossing. See the SKW6454 flight status page for this flight to view local times or setup timezone preferences in your user account.

Time Position Orientation Groundspeed Altitude Reporting Facility
EDT Latitude Longitude Course Direction KTS MPH feet Rate Location/Type
08:45PM 37.6333 -122.4000 77° East 154 177 1,400  Level Northern Cal TRACON
08:46PM 37.6833 -122.3500 38° Northeast 227 261 3,900 2,400 Climbing Northern Cal TRACON
08:46PM 37.7000 -122.2667 76° East 251 289 6,000 2,160 Climbing Northern Cal TRACON
08:47PM 37.8154 -122.0106 54° Northeast  Level FlightAware Approximate
08:48PM 37.8824 -121.8852 58° Northeast  Level FlightAware Approximate
08:48PM 37.7422 -122.1753 60° Northeast 268 308 8,600  Level Oakland Center
08:49PM 37.9324 -121.7519 58° Northeast  Level FlightAware Approximate
08:49PM 37.7681 -122.0819 71° East 279 321 10,700  Level Oakland Center
08:50PM 37.9598 -121.6044 77° East  Level FlightAware Approximate
08:50PM 37.7947 -121.9800 72° East 303 349 12,500  Level Oakland Center
08:51PM 37.8267 -121.8742 69° East 320 368 14,400 1,920 Climbing Oakland Center
08:52PM 37.8653 -121.7397 70° East 339 390 16,500 1,800 Climbing Oakland Center
08:53PM 37.8978 -121.6258 70° East 345 397 18,200 1,620 Climbing Oakland Center
08:54PM 37.9317 -121.5064 70° East 359 413 19,900 1,560 Climbing Oakland Center
08:55PM 37.9647 -121.3925 70° East 360 414 21,500 1,500 Climbing Oakland Center
08:56PM 37.9989 -121.2692 71° East 370 426 23,000 1,320 Climbing Oakland Center
08:57PM 38.0344 -121.1453 70° East 374 430 24,300 1,260 Climbing Oakland Center
08:58PM 38.0753 -120.9928 71° East 381 438 25,600 1,020 Climbing Oakland Center
08:59PM 38.0942 -120.8528 80° East 402 463 26,400 780 Climbing Oakland Center
09:00PM 38.1081 -120.7064 83° East 416 479 27,200 780 Climbing Oakland Center
09:01PM 38.1028 -120.5547 92° East 432 497 28,000 780 Climbing Oakland Center
09:02PM 38.0956 -120.3972 93° East 443 510 28,800 780 Climbing Oakland Center
09:03PM 38.0906 -120.2403 92° East 447 514 29,600 720 Climbing Oakland Center
09:04PM 38.0861 -120.0808 92° East 453 521 30,300 660 Climbing Oakland Center
09:05PM 38.0858 -119.9192 90° East 457 526 31,000 780 Climbing Oakland Center
09:06PM 38.1039 -119.7294 83° East 454 522 31,900 780 Climbing Oakland Center
09:07PM 38.1156 -119.5703 85° East 453 521 32,700 780 Climbing Oakland Center
09:08PM 38.1253 -119.4161 85° East 442 509 33,500 780 Climbing Oakland Center
09:09PM 38.1367 -119.2603 85° East 444 511 34,300 720 Climbing Oakland Center
09:10PM 38.1483 -119.1036 85° East 441 507 35,000 300 Climbing Oakland Center
09:11PM 38.1606 -118.9494 84° East 442 509 35,000 240 Level Oakland Center
09:12PM 38.1708 -118.7961 85° East 439 505 35,500 480 Climbing Oakland Center
09:13PM 38.1814 -118.6406 85° East 442 509 36,100 540 Climbing Oakland Center
09:14PM 38.1917 -118.4869 85° East 439 505 36,600 420 Climbing Oakland Center
09:15PM 38.2050 -118.3047 85° East 435 501 37,000 180 Climbing Oakland Center
09:16PM 38.2147 -118.1519 85° East 435 501 37,000  Level Oakland Center
09:17PM 38.2247 -118.0011 85° East 436 502 37,000  Level Oakland Center
09:18PM 38.2344 -117.8444 85° East 442 509 37,000  Level Oakland Center
09:19PM 38.2442 -117.6875 85° East 444 511 37,000  Level Oakland Center
09:20PM 38.2533 -117.5311 86° East 443 510 37,000  Level Oakland Center
09:21PM 38.2622 -117.3769 86° East 440 506 37,000  Level Oakland Center
09:22PM 38.2683 -117.2806 85° East 438 504 37,000  Level Salt Lake Center
09:22PM 38.2717 -117.2239 86° East 437 503 37,000  Level Oakland Center
09:23PM 38.2775 -117.1219 86° East 439 505 37,000  Level Salt Lake Center
09:24PM 38.2847 -116.9667 87° East 434 499 37,000  Level Salt Lake Center
09:25PM 38.2939 -116.8122 86° East 434 499 37,000  Level Salt Lake Center
09:25PM 38.2969 -116.7514 86° East 433 498 37,000  Level Oakland Center
09:27PM 38.3042 -116.5997 86° East 430 495 37,000  Level Oakland Center
09:28PM 38.3119 -116.4486 86° East 428 493 37,000  Level Oakland Center
09:28PM 38.3169 -116.3589 86° East 426 490 37,000  Level Salt Lake Center
09:29PM 38.3242 -116.2075 86° East 428 493 37,000  Level Salt Lake Center
09:30PM 38.3311 -116.0575 87° East 427 491 37,000  Level Salt Lake Center
09:31PM 38.3383 -115.9089 86° East 421 484 37,000  Level Salt Lake Center
09:32PM 38.3475 -115.7303 86° East 421 484 37,000  Level Salt Lake Center
09:33PM 38.3528 -115.5811 87° East 421 484 37,000  Level Salt Lake Center
09:34PM 38.3594 -115.4314 87° East 423 487 37,000  Level Salt Lake Center
09:35PM 38.3658 -115.2994 86° East 421 484 37,000  Level Salt Lake Center
09:36PM 38.3736 -115.1192 87° East 425 489 37,000  Level Salt Lake Center
09:37PM 38.3800 -114.9711 87° East 420 483 37,000  Level Salt Lake Center
09:38PM 38.3847 -114.8211 88° East 424 488 37,000  Level Salt Lake Center
09:39PM 38.3894 -114.6719 88° East 423 487 37,000  Level Salt Lake Center
09:40PM 38.3953 -114.5219 87° East 423 487 37,000  Level Salt Lake Center
09:41PM 38.4008 -114.3725 87° East 424 488 37,000  Level Salt Lake Center
09:42PM 38.4061 -114.2231 87° East 422 486 37,000  Level Salt Lake Center
09:43PM 38.4106 -114.0736 88° East 421 484 37,000  Level Salt Lake Center
09:44PM 38.4153 -113.8944 88° East 421 484 37,000  Level Salt Lake Center
09:45PM 38.4200 -113.7464 88° East 418 481 37,000  Level Salt Lake Center
09:47PM 38.4242 -113.5983 88° East 417 480 37,000  Level Salt Lake Center
09:48PM 38.4278 -113.4486 88° East 419 482 37,000  Level Salt Lake Center
09:49PM 38.4314 -113.2978 88° East 423 487 37,000  Level Salt Lake Center
09:50PM 38.4358 -113.1494 88° East 421 484 37,000  Level Salt Lake Center
09:51PM 38.4378 -112.9997 89° East 422 486 37,000  Level Salt Lake Center
09:52PM 38.4408 -112.8514 88° East 419 482 37,000  Level Salt Lake Center
09:53PM 38.4444 -112.6986 88° East 424 488 37,000  Level Salt Lake Center
09:54PM 38.4478 -112.5486 88° East 424 488 37,000  Level Salt Lake Center
09:55PM 38.4517 -112.3697 88° East 420 483 37,000  Level Salt Lake Center
09:56PM 38.4536 -112.2200 89° East 421 484 37,000  Level Salt Lake Center
09:57PM 38.4553 -112.0700 89° East 422 486 37,000  Level Salt Lake Center
09:58PM 38.4578 -111.9208 89° East 421 484 37,000  Level Salt Lake Center
09:59PM 38.4597 -111.7694 89° East 424 488 37,000  Level Salt Lake Center
10:00PM 38.4608 -111.6197 89° East 423 487 37,000  Level Salt Lake Center
10:01PM 38.4622 -111.4689 89° East 425 489 37,000  Level Salt Lake Center
10:02PM 38.4633 -111.3181 89° East 426 490 37,000  Level Salt Lake Center
10:03PM 38.4642 -111.1672 90° East 426 490 37,000  Level Salt Lake Center
10:04PM 38.4650 -110.9878 90° East 422 486 37,000  Level Salt Lake Center
10:05PM 38.4650 -110.8447 90° East 426 490 37,000  Level Salt Lake Center
10:06PM 38.4653 -110.7019 90° East 423 487 37,000  Level Salt Lake Center
10:07PM 38.4642 -110.6036 91° East 427 491 37,000  Level Denver Center
10:08PM 38.4642 -110.4369 90° East 424 488 37,000  Level Denver Center
10:09PM 38.4644 -110.2692 90° East 422 486 37,000  Level Denver Center
10:10PM 38.4636 -110.1000 90° East 428 493 37,000  Level Denver Center
10:11PM 38.4631 -109.9547 90° East 428 493 37,000  Level Denver Center
10:12PM 38.4628 -109.7847 90° East 431 496 37,000  Level Denver Center
10:13PM 38.4608 -109.6392 91° East 430 495 37,000  Level Denver Center
10:14PM 38.4594 -109.4708 91° East 426 490 37,000  Level Denver Center
10:15PM 38.4583 -109.3261 91° East 428 493 37,000  Level Denver Center
10:16PM 38.4567 -109.1836 91° East 422 486 37,000  Level Denver Center
10:17PM 38.4556 -109.0172 90° East 419 482 37,000  Level Denver Center
10:18PM 38.4536 -108.8742 91° East 420 483 37,000  Level Denver Center
10:19PM 38.4514 -108.7064 91° East 424 488 37,000  Level Denver Center
10:20PM 38.4483 -108.5631 92° East 424 488 37,000  Level Denver Center
10:21PM 38.4450 -108.3967 91° East 423 487 37,000  Level Denver Center
10:22PM 38.4433 -108.2522 91° East 425 489 37,000  Level Denver Center
10:23PM 38.4394 -108.0844 92° East 425 489 37,000  Level Denver Center
10:24PM 38.4361 -107.9378 92° East 430 495 37,000  Level Denver Center
10:25PM 38.4322 -107.7669 92° East 433 498 37,000  Level Denver Center
10:26PM 38.4283 -107.6225 92° East 428 493 37,000  Level Denver Center
10:27PM 38.4253 -107.4747 91° East 434 499 37,000  Level Denver Center
10:28PM 38.4203 -107.3033 92° East 435 501 37,000  Level Denver Center
10:29PM 38.4158 -107.1514 92° East 429 494 37,000  Level Denver Center
10:30PM 38.4119 -107.0003 92° East 427 491 37,000  Level Denver Center
10:31PM 38.4064 -106.8478 93° East 431 496 37,000  Level Denver Center
10:33PM 38.4014 -106.6967 92° East 430 495 37,000  Level Denver Center
10:34PM 38.3969 -106.5464 92° East 427 491 37,000  Level Denver Center
10:35PM 38.3919 -106.3956 92° East 426 490 37,000  Level Denver Center
10:36PM 38.3844 -106.2136 93° East 430 495 37,000  Level Denver Center
10:37PM 38.3800 -106.0639 92° East 431 496 37,000  Level Denver Center
10:38PM 38.3739 -105.9192 93° East 429 494 37,000  Level Denver Center
10:39PM 38.3686 -105.7494 92° East 431 496 37,000  Level Denver Center
10:40PM 38.3636 -105.6044 92° East 428 493 37,000  Level Denver Center
10:41PM 38.3561 -105.4356 93° East 428 493 37,000  Level Denver Center
10:42PM 38.3478 -105.2664 94° East 428 493 37,000  Level Denver Center
10:43PM 38.3408 -105.0964 93° East 430 495 37,000  Level Denver Center
10:44PM 38.3497 -104.9519 85° East 426 490 37,000  Level Denver Center
10:45PM 38.3578 -104.7811 87° East 429 494 37,000  Level Denver Center
10:46PM 38.3644 -104.6372 87° East 427 491 37,000  Level Denver Center
10:47PM 38.3719 -104.4903 86° East 430 495 37,000  Level Denver Center
10:48PM 38.3797 -104.3200 87° East 430 495 37,000  Level Denver Center
10:49PM 38.3872 -104.1481 87° East 433 498 37,000  Level Denver Center
10:50PM 38.3936 -103.9783 87° East 430 495 37,000  Level Denver Center
10:51PM 38.4003 -103.8317 87° East 433 498 37,000  Level Denver Center
10:52PM 38.4075 -103.6617 87° East 430 495 37,000  Level Denver Center
10:54PM 38.4131 -103.5153 87° East 430 495 37,000  Level Denver Center
10:55PM 38.4197 -103.3378 87° East 430 495 37,000  Level Denver Center
10:56PM 38.4261 -103.1675 87° East 430 495 37,000  Level Denver Center
10:57PM 38.4308 -103.0236 88° East 427 491 37,000  Level Denver Center
10:58PM 38.4375 -102.8539 87° East 428 493 37,000  Level Denver Center
10:59PM 38.4428 -102.7089 87° East 428 493 37,000  Level Denver Center
11:00PM 38.4483 -102.5150 88° East 430 495 37,000  Level Denver Center
11:01PM 38.4528 -102.3694 88° East 428 493 37,000  Level Denver Center
11:02PM 38.4567 -102.2233 88° East 430 495 37,000  Level Denver Center
11:03PM 38.4611 -102.0542 88° East 428 493 37,000  Level Denver Center
11:04PM 38.4658 -101.9083 88° East 430 495 37,000  Level Denver Center
11:05PM 38.4700 -101.7372 88° East 431 496 37,000  Level Denver Center
11:06PM 38.4739 -101.5911 88° East 431 496 37,000  Level Denver Center
11:07PM 38.4772 -101.4439 88° East 433 498 37,000  Level Denver Center
11:08PM 38.4803 -101.2708 89° East 434 499 37,000  Level Denver Center
11:09PM 38.4839 -101.1219 88° East 438 504 37,000  Level Denver Center
11:10PM 38.4869 -100.9736 88° East 437 503 37,000  Level Denver Center
11:11PM 38.4897 -100.7992 89° East 439 505 37,000  Level Denver Center
11:12PM 38.4922 -100.6492 89° East 440 506 37,000  Level Denver Center
11:13PM 38.4942 -100.4750 89° East 440 506 37,000  Level Denver Center
11:14PM 38.4961 -100.3242 89° East 443 510 37,000  Level Denver Center
11:15PM 38.4983 -100.1744 89° East 441 507 37,000  Level Denver Center
11:16PM 38.5008 -100.0008 89° East 439 505 37,000  Level Denver Center
11:18PM 38.4947 -99.8492 93° East 444 511 37,000  Level Denver Center
11:18PM 38.4906 -99.7719 94° East 444 511 37,000 -780 Level Kansas City Center
11:20PM 38.4805 -99.5231 93° East  Level FlightAware Approximate
11:27PM 38.4311 -98.4467 93° East  Level FlightAware Approximate
11:28PM 38.4233 -98.2931 94° East  Level FlightAware Approximate
11:29PM 38.4152 -98.1394 94° East  Level FlightAware Approximate
11:30PM 38.4069 -97.9859 94° East  Level FlightAware Approximate
11:31PM 38.3985 -97.8323 94° East  Level FlightAware Approximate
11:32PM 38.3898 -97.6788 94° East  Level FlightAware Approximate
11:33PM 38.3806 -97.5254 95° East  Level FlightAware Approximate
11:34PM 38.3704 -97.3720 95° East  Level FlightAware Approximate
11:35PM 38.3559 -97.2194 98° East  Level FlightAware Approximate
11:36PM 38.3400 -97.0669 97° East  Level FlightAware Approximate
11:37PM 38.3286 -96.9139 94° East  Level FlightAware Approximate
11:38PM 38.3201 -96.7605 94° East  Level FlightAware Approximate
11:39PM 38.3167 -96.6069 90° East  Level FlightAware Approximate
11:40PM 38.3036 -96.4549 102° East  Level FlightAware Approximate
11:41PM 38.2907 -96.3023 95° East  Level FlightAware Approximate
11:42PM 38.2833 -96.1490 90° East  Level FlightAware Approximate
11:43PM 38.3552 -96.0310 44° Northeast  Level FlightAware Approximate
11:44PM 38.4404 -95.9220 45° Northeast  Level FlightAware Approximate
11:45PM 38.5239 -95.8109 47° Northeast  Level FlightAware Approximate
11:45PM 38.6333 -95.6500 46° Northeast 334 384 16,200  Level Kansas City TRACON
11:46PM 38.6061 -95.6979 47° Northeast  Level FlightAware Approximate
11:46PM 38.7000 -95.5833 38° Northeast 326 375 14,200  Level Kansas City TRACON
11:47PM 38.6876 -95.5842 47° Northeast  Level FlightAware Approximate
11:47PM 38.7500 -95.5000 52° Northeast 320 368 12,700  Level Kansas City TRACON
11:48PM 38.7691 -95.4701 48° Northeast  Level FlightAware Approximate
11:48PM 38.8000 -95.4000 57° Northeast 295 339 11,000  Level Kansas City TRACON
11:49PM 38.8425 -95.3530 49° Northeast  Level FlightAware Approximate
11:49PM 38.8500 -95.3333 46° Northeast 271 312 9,600  Level Kansas City TRACON
11:50PM 38.9218 -95.2376 46° Northeast  Level FlightAware Approximate
11:50PM 38.9000 -95.2667 46° Northeast 274 315 8,800  Level Kansas City TRACON
11:51PM 38.9333 -95.1833 63° Northeast 272 313 8,000 -480 Descending Kansas City TRACON
11:52PM 38.9833 -95.1167 46° Northeast 268 308 8,000  Level Kansas City TRACON
11:53PM 39.0333 -95.0333 52° Northeast 266 306 8,000 -660 Level Kansas City TRACON
11:54PM 39.0667 -94.9667 57° Northeast 259 298 6,700 -1,260 Descending Kansas City TRACON
11:55PM 39.1167 -94.9000 46° Northeast 242 278 5,500 -1,260 Descending Kansas City TRACON
11:56PM 39.1500 -94.8333 57° Northeast 233 268 4,200 -1,260 Descending Kansas City TRACON
11:57PM 39.1833 -94.7667 57° Northeast 227 261 3,200 -1,020 Descending Kansas City TRACON
11:58PM 39.2333 -94.7500 14° North 148 170 2,300 -840 Descending Kansas City TRACON
11:58PM 39.2378 -94.7458 36° Northeast 156 180 2,100 -780 Descending Kansas City Center
11:59PM 39.2786 -94.7342 12° North 136 157 1,300 -600 Descending Kansas City Center
12:00AM 39.3100 -94.7236 15° North 134 154 1,000 -300 Descending Kansas City Center